sensor_id;sensor_type;location;lat;lon;timestamp;P1;durP1;ratioP1;P2;durP2;ratioP2
52786;SDS011;38661;53.152;5.846;2023-06-24T00:00:05;13.75;;;12.32;;
52786;SDS011;38661;53.152;5.846;2023-06-24T00:02:33;14.48;;;11.50;;
52786;SDS011;38661;53.152;5.846;2023-06-24T00:05:01;11.70;;;10.52;;
52786;SDS011;38661;53.152;5.846;2023-06-24T00:07:28;12.15;;;10.55;;
52786;SDS011;38661;53.152;5.846;2023-06-24T00:09:54;13.05;;;10.77;;
52786;SDS011;38661;53.152;5.846;2023-06-24T00:12:20;11.63;;;10.52;;
52786;SDS011;38661;53.152;5.846;2023-06-24T00:14:46;12.70;;;10.90;;
52786;SDS011;38661;53.152;5.846;2023-06-24T00:17:12;11.77;;;10.57;;
52786;SDS011;38661;53.152;5.846;2023-06-24T00:19:38;12.27;;;10.63;;
52786;SDS011;38661;53.152;5.846;2023-06-24T00:22:04;12.82;;;11.27;;
52786;SDS011;38661;53.152;5.846;2023-06-24T00:24:31;14.48;;;11.02;;
52786;SDS011;38661;53.152;5.846;2023-06-24T00:26:57;12.55;;;11.27;;
52786;SDS011;38661;53.152;5.846;2023-06-24T00:29:23;14.18;;;11.43;;
52786;SDS011;38661;53.152;5.846;2023-06-24T00:31:48;14.55;;;11.23;;
52786;SDS011;38661;53.152;5.846;2023-06-24T00:34:14;12.45;;;10.70;;
52786;SDS011;38661;53.152;5.846;2023-06-24T00:36:41;11.95;;;10.73;;
52786;SDS011;38661;53.152;5.846;2023-06-24T00:39:09;11.85;;;10.68;;
52786;SDS011;38661;53.152;5.846;2023-06-24T00:41:35;12.25;;;10.85;;
52786;SDS011;38661;53.152;5.846;2023-06-24T00:44:01;12.57;;;10.48;;
52786;SDS011;38661;53.152;5.846;2023-06-24T00:46:28;12.23;;;10.63;;
52786;SDS011;38661;53.152;5.846;2023-06-24T00:48:54;14.95;;;11.20;;
52786;SDS011;38661;53.152;5.846;2023-06-24T00:51:21;13.48;;;12.05;;
52786;SDS011;38661;53.152;5.846;2023-06-24T00:53:52;12.55;;;11.25;;
52786;SDS011;38661;53.152;5.846;2023-06-24T00:56:18;11.73;;;9.98;;
52786;SDS011;38661;53.152;5.846;2023-06-24T00:58:47;12.73;;;10.68;;
52786;SDS011;38661;53.152;5.846;2023-06-24T01:01:13;11.35;;;9.68;;
52786;SDS011;38661;53.152;5.846;2023-06-24T01:03:41;10.70;;;9.55;;
52786;SDS011;38661;53.152;5.846;2023-06-24T01:06:08;13.07;;;11.23;;
52786;SDS011;38661;53.152;5.846;2023-06-24T01:08:34;14.38;;;11.15;;
52786;SDS011;38661;53.152;5.846;2023-06-24T01:11:00;13.07;;;11.20;;
52786;SDS011;38661;53.152;5.846;2023-06-24T01:13:25;13.85;;;11.93;;
52786;SDS011;38661;53.152;5.846;2023-06-24T01:15:51;13.18;;;11.05;;
52786;SDS011;38661;53.152;5.846;2023-06-24T01:18:21;12.50;;;11.23;;
52786;SDS011;38661;53.152;5.846;2023-06-24T01:36:43;14.63;;;12.75;;
52786;SDS011;38661;53.152;5.846;2023-06-24T01:39:20;12.65;;;11.35;;
52786;SDS011;38661;53.152;5.846;2023-06-24T01:41:52;16.33;;;11.35;;
52786;SDS011;38661;53.152;5.846;2023-06-24T01:44:23;15.48;;;11.27;;
52786;SDS011;38661;53.152;5.846;2023-06-24T01:46:52;12.07;;;10.85;;
52786;SDS011;38661;53.152;5.846;2023-06-24T01:49:22;12.32;;;10.82;;
52786;SDS011;38661;53.152;5.846;2023-06-24T01:51:52;14.63;;;11.73;;
52786;SDS011;38661;53.152;5.846;2023-06-24T01:54:21;13.38;;;12.00;;
52786;SDS011;38661;53.152;5.846;2023-06-24T01:56:49;13.77;;;11.35;;
52786;SDS011;38661;53.152;5.846;2023-06-24T01:59:17;12.30;;;10.45;;
52786;SDS011;38661;53.152;5.846;2023-06-24T02:01:45;14.65;;;12.18;;
52786;SDS011;38661;53.152;5.846;2023-06-24T02:04:11;13.27;;;10.77;;
52786;SDS011;38661;53.152;5.846;2023-06-24T02:06:38;15.50;;;13.43;;
52786;SDS011;38661;53.152;5.846;2023-06-24T02:09:06;15.60;;;12.45;;
52786;SDS011;38661;53.152;5.846;2023-06-24T02:11:33;14.75;;;12.98;;
52786;SDS011;38661;53.152;5.846;2023-06-24T02:14:01;15.07;;;13.38;;
52786;SDS011;38661;53.152;5.846;2023-06-24T02:16:28;14.13;;;12.68;;
52786;SDS011;38661;53.152;5.846;2023-06-24T02:18:55;15.00;;;12.63;;
52786;SDS011;38661;53.152;5.846;2023-06-24T02:21:21;16.45;;;12.85;;
52786;SDS011;38661;53.152;5.846;2023-06-24T02:23:49;17.55;;;13.85;;
52786;SDS011;38661;53.152;5.846;2023-06-24T02:26:17;17.08;;;12.75;;
52786;SDS011;38661;53.152;5.846;2023-06-24T02:28:46;17.45;;;12.82;;
52786;SDS011;38661;53.152;5.846;2023-06-24T02:31:13;15.63;;;12.35;;
52786;SDS011;38661;53.152;5.846;2023-06-24T02:33:40;16.30;;;12.32;;
52786;SDS011;38661;53.152;5.846;2023-06-24T02:36:06;17.60;;;13.75;;
52786;SDS011;38661;53.152;5.846;2023-06-24T02:38:33;15.00;;;12.52;;
52786;SDS011;38661;53.152;5.846;2023-06-24T02:40:59;18.95;;;14.07;;
52786;SDS011;38661;53.152;5.846;2023-06-24T02:43:27;17.05;;;13.70;;
52786;SDS011;38661;53.152;5.846;2023-06-24T02:45:53;15.38;;;13.68;;
52786;SDS011;38661;53.152;5.846;2023-06-24T02:48:19;18.30;;;14.60;;
52786;SDS011;38661;53.152;5.846;2023-06-24T02:50:46;15.07;;;13.48;;
52786;SDS011;38661;53.152;5.846;2023-06-24T02:53:13;15.48;;;13.45;;
52786;SDS011;38661;53.152;5.846;2023-06-24T02:55:40;17.17;;;13.82;;
52786;SDS011;38661;53.152;5.846;2023-06-24T02:58:07;16.92;;;14.27;;
52786;SDS011;38661;53.152;5.846;2023-06-24T03:00:34;15.70;;;13.13;;
52786;SDS011;38661;53.152;5.846;2023-06-24T03:03:01;15.25;;;12.38;;
52786;SDS011;38661;53.152;5.846;2023-06-24T03:05:28;17.77;;;14.13;;
52786;SDS011;38661;53.152;5.846;2023-06-24T03:07:56;15.13;;;13.50;;
52786;SDS011;38661;53.152;5.846;2023-06-24T03:10:23;19.02;;;14.00;;
52786;SDS011;38661;53.152;5.846;2023-06-24T03:12:50;16.80;;;14.25;;
52786;SDS011;38661;53.152;5.846;2023-06-24T03:15:16;17.08;;;13.73;;
52786;SDS011;38661;53.152;5.846;2023-06-24T03:17:42;16.83;;;13.27;;
52786;SDS011;38661;53.152;5.846;2023-06-24T03:20:08;12.15;;;10.32;;
52786;SDS011;38661;53.152;5.846;2023-06-24T03:22:34;16.63;;;13.93;;
52786;SDS011;38661;53.152;5.846;2023-06-24T03:25:00;17.55;;;13.27;;
52786;SDS011;38661;53.152;5.846;2023-06-24T03:27:26;14.82;;;13.30;;
52786;SDS011;38661;53.152;5.846;2023-06-24T03:29:52;17.58;;;13.77;;
52786;SDS011;38661;53.152;5.846;2023-06-24T03:32:17;17.50;;;14.32;;
52786;SDS011;38661;53.152;5.846;2023-06-24T03:34:43;16.83;;;13.30;;
52786;SDS011;38661;53.152;5.846;2023-06-24T03:37:09;15.60;;;12.50;;
52786;SDS011;38661;53.152;5.846;2023-06-24T03:39:34;15.85;;;14.10;;
52786;SDS011;38661;53.152;5.846;2023-06-24T03:42:00;15.32;;;13.57;;
52786;SDS011;38661;53.152;5.846;2023-06-24T03:44:26;18.20;;;13.98;;
52786;SDS011;38661;53.152;5.846;2023-06-24T03:46:51;18.58;;;13.45;;
52786;SDS011;38661;53.152;5.846;2023-06-24T03:49:17;14.85;;;11.30;;
52786;SDS011;38661;53.152;5.846;2023-06-24T03:51:43;21.27;;;13.82;;
52786;SDS011;38661;53.152;5.846;2023-06-24T03:54:09;18.77;;;14.20;;
52786;SDS011;38661;53.152;5.846;2023-06-24T03:56:35;15.80;;;13.45;;
52786;SDS011;38661;53.152;5.846;2023-06-24T03:59:00;15.85;;;13.57;;
52786;SDS011;38661;53.152;5.846;2023-06-24T04:01:26;14.82;;;11.48;;
52786;SDS011;38661;53.152;5.846;2023-06-24T04:03:52;14.88;;;12.52;;
52786;SDS011;38661;53.152;5.846;2023-06-24T04:06:18;15.85;;;14.02;;
52786;SDS011;38661;53.152;5.846;2023-06-24T04:08:43;14.40;;;11.82;;
52786;SDS011;38661;53.152;5.846;2023-06-24T04:11:09;16.83;;;14.05;;
52786;SDS011;38661;53.152;5.846;2023-06-24T04:13:35;18.50;;;13.85;;
52786;SDS011;38661;53.152;5.846;2023-06-24T04:16:01;18.70;;;14.13;;
52786;SDS011;38661;53.152;5.846;2023-06-24T04:18:27;16.10;;;12.25;;
52786;SDS011;38661;53.152;5.846;2023-06-24T04:20:53;14.90;;;11.18;;
52786;SDS011;38661;53.152;5.846;2023-06-24T04:23:18;15.52;;;12.07;;
52786;SDS011;38661;53.152;5.846;2023-06-24T04:25:44;16.02;;;13.40;;
52786;SDS011;38661;53.152;5.846;2023-06-24T04:28:10;17.25;;;13.80;;
52786;SDS011;38661;53.152;5.846;2023-06-24T04:30:36;16.80;;;13.50;;
52786;SDS011;38661;53.152;5.846;2023-06-24T04:33:03;19.35;;;14.43;;
52786;SDS011;38661;53.152;5.846;2023-06-24T04:35:29;17.55;;;13.90;;
52786;SDS011;38661;53.152;5.846;2023-06-24T04:37:56;17.92;;;13.77;;
52786;SDS011;38661;53.152;5.846;2023-06-24T04:40:21;19.83;;;13.88;;
52786;SDS011;38661;53.152;5.846;2023-06-24T04:42:47;15.80;;;11.82;;
52786;SDS011;38661;53.152;5.846;2023-06-24T04:45:13;16.17;;;14.05;;
52786;SDS011;38661;53.152;5.846;2023-06-24T04:47:39;17.80;;;14.30;;
52786;SDS011;38661;53.152;5.846;2023-06-24T04:50:05;16.63;;;13.35;;
52786;SDS011;38661;53.152;5.846;2023-06-24T04:52:34;18.73;;;14.48;;
52786;SDS011;38661;53.152;5.846;2023-06-24T04:55:00;14.73;;;11.77;;
52786;SDS011;38661;53.152;5.846;2023-06-24T04:57:27;19.33;;;14.68;;
52786;SDS011;38661;53.152;5.846;2023-06-24T04:59:54;16.80;;;14.43;;
52786;SDS011;38661;53.152;5.846;2023-06-24T05:02:20;18.90;;;15.43;;
52786;SDS011;38661;53.152;5.846;2023-06-24T05:04:46;17.02;;;13.75;;
52786;SDS011;38661;53.152;5.846;2023-06-24T05:07:11;21.58;;;15.38;;
52786;SDS011;38661;53.152;5.846;2023-06-24T05:09:37;18.27;;;15.05;;
52786;SDS011;38661;53.152;5.846;2023-06-24T05:12:04;20.55;;;15.82;;
52786;SDS011;38661;53.152;5.846;2023-06-24T05:14:30;16.00;;;14.02;;
52786;SDS011;38661;53.152;5.846;2023-06-24T05:16:55;17.85;;;15.48;;
52786;SDS011;38661;53.152;5.846;2023-06-24T05:19:21;18.77;;;15.38;;
52786;SDS011;38661;53.152;5.846;2023-06-24T05:21:47;17.88;;;14.93;;
52786;SDS011;38661;53.152;5.846;2023-06-24T05:24:13;20.30;;;14.27;;
52786;SDS011;38661;53.152;5.846;2023-06-24T05:26:38;19.48;;;15.70;;
52786;SDS011;38661;53.152;5.846;2023-06-24T05:29:04;18.75;;;15.93;;
52786;SDS011;38661;53.152;5.846;2023-06-24T05:31:30;21.95;;;15.88;;
52786;SDS011;38661;53.152;5.846;2023-06-24T05:33:56;16.23;;;14.50;;
52786;SDS011;38661;53.152;5.846;2023-06-24T05:36:21;19.77;;;15.32;;
52786;SDS011;38661;53.152;5.846;2023-06-24T05:38:47;17.48;;;13.63;;
52786;SDS011;38661;53.152;5.846;2023-06-24T05:41:14;17.33;;;14.55;;
52786;SDS011;38661;53.152;5.846;2023-06-24T05:43:42;19.13;;;15.30;;
52786;SDS011;38661;53.152;5.846;2023-06-24T05:46:08;20.77;;;14.38;;
52786;SDS011;38661;53.152;5.846;2023-06-24T05:48:34;20.13;;;14.85;;
52786;SDS011;38661;53.152;5.846;2023-06-24T05:51:00;19.33;;;14.63;;
52786;SDS011;38661;53.152;5.846;2023-06-24T05:53:25;17.05;;;14.18;;
52786;SDS011;38661;53.152;5.846;2023-06-24T05:55:51;18.52;;;14.32;;
52786;SDS011;38661;53.152;5.846;2023-06-24T05:58:17;17.35;;;15.15;;
52786;SDS011;38661;53.152;5.846;2023-06-24T06:00:42;15.38;;;13.43;;
52786;SDS011;38661;53.152;5.846;2023-06-24T06:03:08;16.80;;;13.63;;
52786;SDS011;38661;53.152;5.846;2023-06-24T06:05:34;15.43;;;13.80;;
52786;SDS011;38661;53.152;5.846;2023-06-24T06:08:00;17.17;;;14.00;;
52786;SDS011;38661;53.152;5.846;2023-06-24T06:10:26;21.30;;;14.98;;
52786;SDS011;38661;53.152;5.846;2023-06-24T06:12:51;19.25;;;14.35;;
52786;SDS011;38661;53.152;5.846;2023-06-24T06:15:18;17.13;;;14.75;;
52786;SDS011;38661;53.152;5.846;2023-06-24T06:17:45;20.98;;;14.73;;
52786;SDS011;38661;53.152;5.846;2023-06-24T06:20:11;17.80;;;14.07;;
52786;SDS011;38661;53.152;5.846;2023-06-24T06:22:37;19.13;;;15.65;;
52786;SDS011;38661;53.152;5.846;2023-06-24T06:25:04;16.67;;;14.18;;
52786;SDS011;38661;53.152;5.846;2023-06-24T06:27:30;17.48;;;14.18;;
52786;SDS011;38661;53.152;5.846;2023-06-24T06:29:56;17.95;;;13.60;;
52786;SDS011;38661;53.152;5.846;2023-06-24T06:32:22;15.32;;;12.90;;
52786;SDS011;38661;53.152;5.846;2023-06-24T06:34:49;19.92;;;13.02;;
52786;SDS011;38661;53.152;5.846;2023-06-24T06:37:15;18.05;;;13.27;;
52786;SDS011;38661;53.152;5.846;2023-06-24T06:39:40;14.35;;;12.80;;
52786;SDS011;38661;53.152;5.846;2023-06-24T06:42:06;15.38;;;13.43;;
52786;SDS011;38661;53.152;5.846;2023-06-24T06:44:32;18.05;;;12.77;;
52786;SDS011;38661;53.152;5.846;2023-06-24T06:46:58;16.13;;;12.80;;
52786;SDS011;38661;53.152;5.846;2023-06-24T06:49:24;16.52;;;12.52;;
52786;SDS011;38661;53.152;5.846;2023-06-24T06:51:49;14.55;;;10.65;;
52786;SDS011;38661;53.152;5.846;2023-06-24T06:54:17;16.80;;;12.70;;
52786;SDS011;38661;53.152;5.846;2023-06-24T06:56:42;15.18;;;12.05;;
52786;SDS011;38661;53.152;5.846;2023-06-24T06:59:08;16.05;;;11.48;;
52786;SDS011;38661;53.152;5.846;2023-06-24T07:01:34;13.38;;;11.95;;
52786;SDS011;38661;53.152;5.846;2023-06-24T07:03:59;13.82;;;12.30;;
52786;SDS011;38661;53.152;5.846;2023-06-24T07:06:25;14.30;;;11.77;;
52786;SDS011;38661;53.152;5.846;2023-06-24T07:08:51;14.27;;;11.25;;
52786;SDS011;38661;53.152;5.846;2023-06-24T07:11:17;14.68;;;10.52;;
52786;SDS011;38661;53.152;5.846;2023-06-24T07:13:43;12.73;;;10.88;;
52786;SDS011;38661;53.152;5.846;2023-06-24T07:16:11;14.43;;;11.07;;
52786;SDS011;38661;53.152;5.846;2023-06-24T07:18:37;13.85;;;11.55;;
52786;SDS011;38661;53.152;5.846;2023-06-24T07:21:02;15.43;;;11.40;;
52786;SDS011;38661;53.152;5.846;2023-06-24T07:23:28;13.63;;;11.50;;
52786;SDS011;38661;53.152;5.846;2023-06-24T07:25:54;13.88;;;11.48;;
52786;SDS011;38661;53.152;5.846;2023-06-24T07:28:20;13.18;;;11.65;;
52786;SDS011;38661;53.152;5.846;2023-06-24T07:30:45;15.02;;;11.70;;
52786;SDS011;38661;53.152;5.846;2023-06-24T07:33:11;13.75;;;12.25;;
52786;SDS011;38661;53.152;5.846;2023-06-24T07:35:39;14.57;;;13.05;;
52786;SDS011;38661;53.152;5.846;2023-06-24T07:38:05;14.18;;;12.30;;
52786;SDS011;38661;53.152;5.846;2023-06-24T07:40:31;15.43;;;12.82;;
52786;SDS011;38661;53.152;5.846;2023-06-24T07:42:56;14.70;;;11.75;;
52786;SDS011;38661;53.152;5.846;2023-06-24T07:45:22;12.88;;;11.52;;
52786;SDS011;38661;53.152;5.846;2023-06-24T07:47:48;14.35;;;12.35;;
52786;SDS011;38661;53.152;5.846;2023-06-24T07:50:14;14.63;;;11.23;;
52786;SDS011;38661;53.152;5.846;2023-06-24T07:52:40;14.88;;;10.93;;
52786;SDS011;38661;53.152;5.846;2023-06-24T07:55:06;11.73;;;9.80;;
52786;SDS011;38661;53.152;5.846;2023-06-24T07:57:32;13.15;;;10.57;;
52786;SDS011;38661;53.152;5.846;2023-06-24T07:59:57;11.77;;;9.68;;
52786;SDS011;38661;53.152;5.846;2023-06-24T08:02:23;12.20;;;9.20;;
52786;SDS011;38661;53.152;5.846;2023-06-24T08:04:49;11.57;;;9.00;;
52786;SDS011;38661;53.152;5.846;2023-06-24T08:07:15;10.48;;;8.55;;
52786;SDS011;38661;53.152;5.846;2023-06-24T08:09:41;9.75;;;7.97;;
52786;SDS011;38661;53.152;5.846;2023-06-24T08:12:07;10.65;;;8.13;;
52786;SDS011;38661;53.152;5.846;2023-06-24T08:14:33;10.48;;;8.32;;
52786;SDS011;38661;53.152;5.846;2023-06-24T08:17:00;12.25;;;8.23;;
52786;SDS011;38661;53.152;5.846;2023-06-24T08:19:26;9.93;;;7.30;;
52786;SDS011;38661;53.152;5.846;2023-06-24T08:21:52;10.68;;;7.93;;
52786;SDS011;38661;53.152;5.846;2023-06-24T08:24:18;12.70;;;7.93;;
52786;SDS011;38661;53.152;5.846;2023-06-24T08:26:43;10.10;;;8.23;;
52786;SDS011;38661;53.152;5.846;2023-06-24T08:29:09;14.10;;;8.50;;
52786;SDS011;38661;53.152;5.846;2023-06-24T08:31:35;11.00;;;8.63;;
52786;SDS011;38661;53.152;5.846;2023-06-24T08:34:00;10.20;;;7.50;;
52786;SDS011;38661;53.152;5.846;2023-06-24T08:36:27;12.45;;;8.80;;
52786;SDS011;38661;53.152;5.846;2023-06-24T08:38:54;10.02;;;7.90;;
52786;SDS011;38661;53.152;5.846;2023-06-24T08:41:20;9.63;;;7.50;;
52786;SDS011;38661;53.152;5.846;2023-06-24T08:43:47;10.57;;;6.85;;
52786;SDS011;38661;53.152;5.846;2023-06-24T08:46:14;10.15;;;7.68;;
52786;SDS011;38661;53.152;5.846;2023-06-24T08:48:43;10.70;;;7.05;;
52786;SDS011;38661;53.152;5.846;2023-06-24T08:51:11;11.07;;;7.32;;
52786;SDS011;38661;53.152;5.846;2023-06-24T08:53:41;9.73;;;7.20;;
52786;SDS011;38661;53.152;5.846;2023-06-24T08:56:09;10.40;;;7.95;;
52786;SDS011;38661;53.152;5.846;2023-06-24T08:58:35;10.65;;;7.15;;
52786;SDS011;38661;53.152;5.846;2023-06-24T09:01:01;9.43;;;6.85;;
52786;SDS011;38661;53.152;5.846;2023-06-24T09:03:27;10.80;;;7.43;;
52786;SDS011;38661;53.152;5.846;2023-06-24T09:05:53;8.82;;;6.57;;
52786;SDS011;38661;53.152;5.846;2023-06-24T09:08:19;9.57;;;6.20;;
52786;SDS011;38661;53.152;5.846;2023-06-24T09:10:46;9.60;;;6.55;;
52786;SDS011;38661;53.152;5.846;2023-06-24T09:13:21;11.43;;;6.72;;
52786;SDS011;38661;53.152;5.846;2023-06-24T09:16:00;8.23;;;6.60;;
52786;SDS011;38661;53.152;5.846;2023-06-24T09:18:40;10.70;;;7.07;;
52786;SDS011;38661;53.152;5.846;2023-06-24T09:21:05;9.73;;;7.03;;
52786;SDS011;38661;53.152;5.846;2023-06-24T09:23:35;8.55;;;6.80;;
52786;SDS011;38661;53.152;5.846;2023-06-24T09:26:05;9.55;;;6.80;;
52786;SDS011;38661;53.152;5.846;2023-06-24T09:28:35;11.02;;;6.75;;
52786;SDS011;38661;53.152;5.846;2023-06-24T09:31:09;9.38;;;6.30;;
52786;SDS011;38661;53.152;5.846;2023-06-24T09:33:35;10.18;;;6.07;;
52786;SDS011;38661;53.152;5.846;2023-06-24T09:36:04;7.93;;;6.55;;
52786;SDS011;38661;53.152;5.846;2023-06-24T09:38:37;8.05;;;6.38;;
52786;SDS011;38661;53.152;5.846;2023-06-24T09:41:03;7.13;;;5.57;;
52786;SDS011;38661;53.152;5.846;2023-06-24T09:43:35;9.70;;;6.15;;
52786;SDS011;38661;53.152;5.846;2023-06-24T09:46:02;8.48;;;6.53;;
52786;SDS011;38661;53.152;5.846;2023-06-24T09:48:28;9.98;;;7.03;;
52786;SDS011;38661;53.152;5.846;2023-06-24T09:50:55;7.50;;;6.47;;
52786;SDS011;38661;53.152;5.846;2023-06-24T09:53:24;11.65;;;6.40;;
52786;SDS011;38661;53.152;5.846;2023-06-24T09:55:50;9.38;;;6.10;;
52786;SDS011;38661;53.152;5.846;2023-06-24T09:58:18;7.50;;;6.25;;
52786;SDS011;38661;53.152;5.846;2023-06-24T10:00:45;8.43;;;6.03;;
52786;SDS011;38661;53.152;5.846;2023-06-24T10:03:11;8.98;;;6.45;;
52786;SDS011;38661;53.152;5.846;2023-06-24T10:05:37;10.02;;;6.95;;
52786;SDS011;38661;53.152;5.846;2023-06-24T10:08:04;11.10;;;6.97;;
52786;SDS011;38661;53.152;5.846;2023-06-24T10:10:30;9.93;;;7.32;;
52786;SDS011;38661;53.152;5.846;2023-06-24T10:12:56;10.45;;;7.43;;
52786;SDS011;38661;53.152;5.846;2023-06-24T10:15:22;9.93;;;7.50;;
52786;SDS011;38661;53.152;5.846;2023-06-24T10:17:50;8.75;;;7.18;;
52786;SDS011;38661;53.152;5.846;2023-06-24T10:20:25;8.25;;;6.68;;
52786;SDS011;38661;53.152;5.846;2023-06-24T10:22:51;10.98;;;6.60;;
52786;SDS011;38661;53.152;5.846;2023-06-24T10:25:17;10.88;;;7.30;;
52786;SDS011;38661;53.152;5.846;2023-06-24T10:27:43;8.32;;;6.05;;
52786;SDS011;38661;53.152;5.846;2023-06-24T10:30:19;7.28;;;5.47;;
52786;SDS011;38661;53.152;5.846;2023-06-24T10:32:50;7.28;;;6.38;;
52786;SDS011;38661;53.152;5.846;2023-06-24T10:35:24;8.15;;;6.90;;
52786;SDS011;38661;53.152;5.846;2023-06-24T10:37:57;11.13;;;5.95;;
52786;SDS011;38661;53.152;5.846;2023-06-24T10:40:43;6.38;;;5.57;;
52786;SDS011;38661;53.152;5.846;2023-06-24T10:43:25;8.65;;;5.35;;
52786;SDS011;38661;53.152;5.846;2023-06-24T10:45:54;8.05;;;5.82;;
52786;SDS011;38661;53.152;5.846;2023-06-24T10:48:21;7.72;;;5.55;;
52786;SDS011;38661;53.152;5.846;2023-06-24T10:50:47;10.60;;;6.70;;
52786;SDS011;38661;53.152;5.846;2023-06-24T10:53:14;8.05;;;6.72;;
52786;SDS011;38661;53.152;5.846;2023-06-24T10:55:43;7.82;;;6.32;;
52786;SDS011;38661;53.152;5.846;2023-06-24T10:58:11;6.78;;;5.72;;
52786;SDS011;38661;53.152;5.846;2023-06-24T11:00:39;7.78;;;6.70;;
52786;SDS011;38661;53.152;5.846;2023-06-24T11:03:12;9.23;;;5.82;;
52786;SDS011;38661;53.152;5.846;2023-06-24T11:05:40;7.70;;;5.85;;
52786;SDS011;38661;53.152;5.846;2023-06-24T11:08:10;10.45;;;7.35;;
52786;SDS011;38661;53.152;5.846;2023-06-24T11:10:45;7.38;;;6.43;;
52786;SDS011;38661;53.152;5.846;2023-06-24T11:13:12;6.25;;;4.20;;
52786;SDS011;38661;53.152;5.846;2023-06-24T11:15:39;8.30;;;5.30;;
52786;SDS011;38661;53.152;5.846;2023-06-24T11:18:07;5.50;;;4.72;;
52786;SDS011;38661;53.152;5.846;2023-06-24T11:20:35;5.40;;;3.72;;
52786;SDS011;38661;53.152;5.846;2023-06-24T11:23:02;7.65;;;4.75;;
52786;SDS011;38661;53.152;5.846;2023-06-24T11:25:32;7.38;;;4.28;;
52786;SDS011;38661;53.152;5.846;2023-06-24T11:28:40;5.78;;;3.40;;
52786;SDS011;38661;53.152;5.846;2023-06-24T11:31:08;4.22;;;3.13;;
52786;SDS011;38661;53.152;5.846;2023-06-24T11:33:35;3.90;;;3.50;;
52786;SDS011;38661;53.152;5.846;2023-06-24T11:36:01;7.03;;;3.45;;
52786;SDS011;38661;53.152;5.846;2023-06-24T11:38:27;4.45;;;4.00;;
52786;SDS011;38661;53.152;5.846;2023-06-24T11:40:57;6.70;;;3.78;;
52786;SDS011;38661;53.152;5.846;2023-06-24T11:43:25;5.10;;;3.50;;
52786;SDS011;38661;53.152;5.846;2023-06-24T11:45:51;5.80;;;3.20;;
52786;SDS011;38661;53.152;5.846;2023-06-24T11:48:17;6.03;;;3.30;;
52786;SDS011;38661;53.152;5.846;2023-06-24T11:50:44;6.68;;;4.57;;
52786;SDS011;38661;53.152;5.846;2023-06-24T11:53:40;5.00;;;3.80;;
52786;SDS011;38661;53.152;5.846;2023-06-24T11:56:10;6.05;;;3.85;;
52786;SDS011;38661;53.152;5.846;2023-06-24T11:58:37;5.15;;;4.40;;
52786;SDS011;38661;53.152;5.846;2023-06-24T12:01:03;6.20;;;4.65;;
52786;SDS011;38661;53.152;5.846;2023-06-24T12:03:32;6.07;;;4.60;;
52786;SDS011;38661;53.152;5.846;2023-06-24T12:05:58;6.82;;;4.32;;
52786;SDS011;38661;53.152;5.846;2023-06-24T12:08:24;6.68;;;4.22;;
52786;SDS011;38661;53.152;5.846;2023-06-24T12:10:51;5.85;;;4.22;;
52786;SDS011;38661;53.152;5.846;2023-06-24T12:13:17;5.43;;;4.07;;
52786;SDS011;38661;53.152;5.846;2023-06-24T12:15:43;6.10;;;4.32;;
52786;SDS011;38661;53.152;5.846;2023-06-24T12:18:09;5.13;;;3.40;;
52786;SDS011;38661;53.152;5.846;2023-06-24T12:20:36;5.63;;;3.88;;
52786;SDS011;38661;53.152;5.846;2023-06-24T12:23:02;6.88;;;3.85;;
52786;SDS011;38661;53.152;5.846;2023-06-24T12:25:31;5.32;;;4.05;;
52786;SDS011;38661;53.152;5.846;2023-06-24T12:27:56;4.82;;;3.75;;
52786;SDS011;38661;53.152;5.846;2023-06-24T12:30:24;5.35;;;2.90;;
52786;SDS011;38661;53.152;5.846;2023-06-24T12:32:50;6.82;;;3.63;;
52786;SDS011;38661;53.152;5.846;2023-06-24T12:35:16;6.43;;;3.72;;
52786;SDS011;38661;53.152;5.846;2023-06-24T12:37:42;6.50;;;4.38;;
52786;SDS011;38661;53.152;5.846;2023-06-24T12:40:10;7.68;;;3.80;;
52786;SDS011;38661;53.152;5.846;2023-06-24T12:42:37;4.00;;;2.97;;
52786;SDS011;38661;53.152;5.846;2023-06-24T12:45:03;4.30;;;3.38;;
52786;SDS011;38661;53.152;5.846;2023-06-24T12:47:29;5.07;;;3.42;;
52786;SDS011;38661;53.152;5.846;2023-06-24T12:49:55;3.42;;;2.92;;
52786;SDS011;38661;53.152;5.846;2023-06-24T12:52:21;6.53;;;3.58;;
52786;SDS011;38661;53.152;5.846;2023-06-24T12:54:46;5.88;;;3.75;;
52786;SDS011;38661;53.152;5.846;2023-06-24T12:57:13;4.10;;;3.13;;
52786;SDS011;38661;53.152;5.846;2023-06-24T12:59:42;6.53;;;3.70;;
52786;SDS011;38661;53.152;5.846;2023-06-24T13:02:08;3.80;;;2.40;;
52786;SDS011;38661;53.152;5.846;2023-06-24T13:04:36;3.60;;;3.30;;
52786;SDS011;38661;53.152;5.846;2023-06-24T13:07:07;5.50;;;2.92;;
52786;SDS011;38661;53.152;5.846;2023-06-24T13:09:35;4.38;;;3.08;;
52786;SDS011;38661;53.152;5.846;2023-06-24T13:12:04;4.43;;;3.70;;
52786;SDS011;38661;53.152;5.846;2023-06-24T13:14:30;4.05;;;3.38;;
52786;SDS011;38661;53.152;5.846;2023-06-24T13:16:55;5.18;;;3.53;;
52786;SDS011;38661;53.152;5.846;2023-06-24T13:19:21;8.05;;;3.88;;
52786;SDS011;38661;53.152;5.846;2023-06-24T13:21:47;3.72;;;3.28;;
52786;SDS011;38661;53.152;5.846;2023-06-24T13:24:13;6.32;;;3.30;;
52786;SDS011;38661;53.152;5.846;2023-06-24T13:26:38;4.22;;;3.83;;
52786;SDS011;38661;53.152;5.846;2023-06-24T13:29:04;4.97;;;3.30;;
52786;SDS011;38661;53.152;5.846;2023-06-24T13:31:31;2.88;;;2.58;;
52786;SDS011;38661;53.152;5.846;2023-06-24T13:33:56;4.10;;;3.33;;
52786;SDS011;38661;53.152;5.846;2023-06-24T13:36:30;3.58;;;3.00;;
52786;SDS011;38661;53.152;5.846;2023-06-24T13:38:58;5.28;;;3.35;;
52786;SDS011;38661;53.152;5.846;2023-06-24T13:41:24;5.00;;;3.72;;
52786;SDS011;38661;53.152;5.846;2023-06-24T13:43:52;4.70;;;3.15;;
52786;SDS011;38661;53.152;5.846;2023-06-24T13:46:18;4.72;;;3.60;;
52786;SDS011;38661;53.152;5.846;2023-06-24T13:48:44;5.30;;;3.65;;
52786;SDS011;38661;53.152;5.846;2023-06-24T13:51:13;5.28;;;3.40;;
52786;SDS011;38661;53.152;5.846;2023-06-24T13:53:38;4.72;;;3.47;;
52786;SDS011;38661;53.152;5.846;2023-06-24T13:56:09;4.30;;;3.90;;
52786;SDS011;38661;53.152;5.846;2023-06-24T13:58:35;5.00;;;3.80;;
52786;SDS011;38661;53.152;5.846;2023-06-24T14:01:01;4.13;;;3.38;;
52786;SDS011;38661;53.152;5.846;2023-06-24T14:03:26;6.80;;;4.05;;
52786;SDS011;38661;53.152;5.846;2023-06-24T14:05:52;4.72;;;3.45;;
52786;SDS011;38661;53.152;5.846;2023-06-24T14:08:22;6.63;;;3.58;;
52786;SDS011;38661;53.152;5.846;2023-06-24T14:10:48;4.20;;;3.47;;
52786;SDS011;38661;53.152;5.846;2023-06-24T14:13:14;4.78;;;4.13;;
52786;SDS011;38661;53.152;5.846;2023-06-24T14:15:40;6.63;;;4.57;;
52786;SDS011;38661;53.152;5.846;2023-06-24T14:18:06;3.25;;;2.92;;
52786;SDS011;38661;53.152;5.846;2023-06-24T14:20:37;5.55;;;3.03;;
52786;SDS011;38661;53.152;5.846;2023-06-24T14:23:03;5.78;;;3.50;;
52786;SDS011;38661;53.152;5.846;2023-06-24T14:25:30;5.00;;;3.60;;
52786;SDS011;38661;53.152;5.846;2023-06-24T14:27:55;5.00;;;3.83;;
52786;SDS011;38661;53.152;5.846;2023-06-24T14:30:21;4.60;;;3.05;;
52786;SDS011;38661;53.152;5.846;2023-06-24T14:32:47;4.55;;;4.05;;
52786;SDS011;38661;53.152;5.846;2023-06-24T14:35:13;5.28;;;4.30;;
52786;SDS011;38661;53.152;5.846;2023-06-24T14:37:38;6.25;;;4.57;;
52786;SDS011;38661;53.152;5.846;2023-06-24T14:40:05;5.32;;;3.85;;
52786;SDS011;38661;53.152;5.846;2023-06-24T14:42:31;4.82;;;4.35;;
52786;SDS011;38661;53.152;5.846;2023-06-24T14:44:57;5.97;;;4.38;;
52786;SDS011;38661;53.152;5.846;2023-06-24T14:47:22;4.90;;;3.58;;